Portland, Iowa
Current Conditions -  °F | °C
As of 8:53 PM on Friday 31 Oct 2014 (Local Time) from KMCW Reporting Station
Clear Clear  
Wind Chill: 17°   Ceiling: Unl
Heat Index: 24°   Visibility: 10mi
Dew Point: 17°   Wind: 6mph
Humidity: 75%   Direction: 360°N
Pressure: 30.47"   Gusts: NA
Location:  43.1451°N, 93.1385°W
Report Text: KMCW 010153Z AUTO 36005KT 10SM CLR M04/M08 A3047 RMK AO2 SLP330 T10441083
Loading
Personal Weather Stations






























Interactive Weather Map
Tropical Storm Tracking
New forecast layout! Learn more

10-Day Weather Forecast

Advertisements
Track Severe Weather on mobile